sensor_id;sensor_type;location;lat;lon;timestamp;P1;durP1;ratioP1;P2;durP2;ratioP2
24301;SDS011;12421;49.732;20.078;2024-02-23T00:02:52;2.10;;;1.30;;
24301;SDS011;12421;49.732;20.078;2024-02-23T00:12:56;2.20;;;1.10;;
24301;SDS011;12421;49.732;20.078;2024-02-23T00:23:00;2.80;;;1.40;;
24301;SDS011;12421;49.732;20.078;2024-02-23T00:33:04;2.90;;;1.50;;
24301;SDS011;12421;49.732;20.078;2024-02-23T00:43:08;3.50;;;1.40;;
24301;SDS011;12421;49.732;20.078;2024-02-23T00:53:11;3.20;;;1.40;;
24301;SDS011;12421;49.732;20.078;2024-02-23T01:03:14;2.50;;;1.40;;
24301;SDS011;12421;49.732;20.078;2024-02-23T01:13:17;2.00;;;1.20;;
24301;SDS011;12421;49.732;20.078;2024-02-23T01:23:21;2.80;;;1.50;;
24301;SDS011;12421;49.732;20.078;2024-02-23T01:33:24;1.90;;;1.10;;
24301;SDS011;12421;49.732;20.078;2024-02-23T01:43:28;2.90;;;1.40;;
24301;SDS011;12421;49.732;20.078;2024-02-23T01:53:31;3.90;;;1.40;;
24301;SDS011;12421;49.732;20.078;2024-02-23T02:03:35;2.70;;;2.00;;
24301;SDS011;12421;49.732;20.078;2024-02-23T02:13:41;3.80;;;2.00;;
24301;SDS011;12421;49.732;20.078;2024-02-23T02:23:44;4.20;;;1.60;;
24301;SDS011;12421;49.732;20.078;2024-02-23T02:33:47;4.70;;;1.80;;
24301;SDS011;12421;49.732;20.078;2024-02-23T02:43:50;3.30;;;2.00;;
24301;SDS011;12421;49.732;20.078;2024-02-23T02:53:54;3.90;;;2.00;;
24301;SDS011;12421;49.732;20.078;2024-02-23T03:03:57;3.40;;;2.20;;
24301;SDS011;12421;49.732;20.078;2024-02-23T03:14:00;4.40;;;1.90;;
24301;SDS011;12421;49.732;20.078;2024-02-23T03:24:04;4.70;;;2.20;;
24301;SDS011;12421;49.732;20.078;2024-02-23T03:34:07;3.50;;;2.40;;
24301;SDS011;12421;49.732;20.078;2024-02-23T03:44:11;7.20;;;4.00;;
24301;SDS011;12421;49.732;20.078;2024-02-23T03:54:14;4.20;;;2.30;;
24301;SDS011;12421;49.732;20.078;2024-02-23T04:04:17;4.60;;;2.20;;
24301;SDS011;12421;49.732;20.078;2024-02-23T04:14:20;4.40;;;2.60;;
24301;SDS011;12421;49.732;20.078;2024-02-23T04:24:24;2.90;;;1.90;;
24301;SDS011;12421;49.732;20.078;2024-02-23T04:34:29;2.80;;;1.60;;
24301;SDS011;12421;49.732;20.078;2024-02-23T04:44:32;4.00;;;1.30;;
24301;SDS011;12421;49.732;20.078;2024-02-23T04:54:35;2.40;;;1.20;;
24301;SDS011;12421;49.732;20.078;2024-02-23T05:04:38;4.20;;;1.40;;
24301;SDS011;12421;49.732;20.078;2024-02-23T05:14:41;3.00;;;1.80;;
24301;SDS011;12421;49.732;20.078;2024-02-23T05:24:45;3.30;;;2.00;;
24301;SDS011;12421;49.732;20.078;2024-02-23T05:34:48;4.30;;;2.20;;
24301;SDS011;12421;49.732;20.078;2024-02-23T05:44:54;4.40;;;1.90;;
24301;SDS011;12421;49.732;20.078;2024-02-23T05:54:58;3.30;;;1.70;;
24301;SDS011;12421;49.732;20.078;2024-02-23T06:05:03;6.00;;;4.20;;
24301;SDS011;12421;49.732;20.078;2024-02-23T06:15:08;4.90;;;1.60;;
24301;SDS011;12421;49.732;20.078;2024-02-23T06:25:12;2.70;;;1.60;;
24301;SDS011;12421;49.732;20.078;2024-02-23T06:35:15;2.20;;;1.00;;
24301;SDS011;12421;49.732;20.078;2024-02-23T06:45:18;4.60;;;1.40;;
24301;SDS011;12421;49.732;20.078;2024-02-23T06:55:22;3.60;;;1.60;;
24301;SDS011;12421;49.732;20.078;2024-02-23T07:05:25;3.40;;;2.00;;
24301;SDS011;12421;49.732;20.078;2024-02-23T07:15:28;5.80;;;3.20;;
24301;SDS011;12421;49.732;20.078;2024-02-23T07:25:32;5.00;;;2.90;;
24301;SDS011;12421;49.732;20.078;2024-02-23T07:35:36;4.70;;;2.40;;
24301;SDS011;12421;49.732;20.078;2024-02-23T07:45:39;7.80;;;5.60;;
24301;SDS011;12421;49.732;20.078;2024-02-23T07:55:43;8.90;;;5.80;;
24301;SDS011;12421;49.732;20.078;2024-02-23T08:05:46;12.20;;;5.50;;
24301;SDS011;12421;49.732;20.078;2024-02-23T08:15:49;8.90;;;5.40;;
24301;SDS011;12421;49.732;20.078;2024-02-23T08:25:52;7.50;;;3.90;;
24301;SDS011;12421;49.732;20.078;2024-02-23T08:35:56;6.20;;;3.30;;
24301;SDS011;12421;49.732;20.078;2024-02-23T08:46:00;7.80;;;3.80;;
24301;SDS011;12421;49.732;20.078;2024-02-23T08:56:10;7.10;;;4.30;;
24301;SDS011;12421;49.732;20.078;2024-02-23T09:06:14;5.90;;;3.50;;
24301;SDS011;12421;49.732;20.078;2024-02-23T09:16:18;5.60;;;3.20;;
24301;SDS011;12421;49.732;20.078;2024-02-23T09:26:21;4.70;;;2.50;;
24301;SDS011;12421;49.732;20.078;2024-02-23T09:36:25;3.50;;;1.90;;
24301;SDS011;12421;49.732;20.078;2024-02-23T09:46:28;3.20;;;1.90;;
24301;SDS011;12421;49.732;20.078;2024-02-23T09:56:32;3.40;;;1.80;;
24301;SDS011;12421;49.732;20.078;2024-02-23T10:06:36;19.40;;;10.80;;
24301;SDS011;12421;49.732;20.078;2024-02-23T10:16:40;12.40;;;7.80;;
24301;SDS011;12421;49.732;20.078;2024-02-23T10:26:44;7.40;;;3.30;;
24301;SDS011;12421;49.732;20.078;2024-02-23T10:36:47;4.00;;;1.90;;
24301;SDS011;12421;49.732;20.078;2024-02-23T10:46:53;6.70;;;3.80;;
24301;SDS011;12421;49.732;20.078;2024-02-23T10:56:57;4.20;;;2.40;;
24301;SDS011;12421;49.732;20.078;2024-02-23T11:07:01;4.90;;;2.20;;
24301;SDS011;12421;49.732;20.078;2024-02-23T11:17:17;8.70;;;3.70;;
24301;SDS011;12421;49.732;20.078;2024-02-23T11:27:23;5.40;;;2.90;;
24301;SDS011;12421;49.732;20.078;2024-02-23T11:37:28;4.00;;;2.10;;
24301;SDS011;12421;49.732;20.078;2024-02-23T11:47:32;3.20;;;1.80;;
24301;SDS011;12421;49.732;20.078;2024-02-23T11:57:38;3.00;;;1.40;;
24301;SDS011;12421;49.732;20.078;2024-02-23T12:07:50;2.60;;;1.50;;
24301;SDS011;12421;49.732;20.078;2024-02-23T12:17:54;3.50;;;1.90;;
24301;SDS011;12421;49.732;20.078;2024-02-23T12:28:03;2.80;;;1.60;;
24301;SDS011;12421;49.732;20.078;2024-02-23T12:38:06;3.40;;;1.90;;
24301;SDS011;12421;49.732;20.078;2024-02-23T12:48:10;3.70;;;1.90;;
24301;SDS011;12421;49.732;20.078;2024-02-23T12:58:14;4.90;;;3.00;;
24301;SDS011;12421;49.732;20.078;2024-02-23T13:08:17;11.70;;;6.40;;
24301;SDS011;12421;49.732;20.078;2024-02-23T13:18:20;4.60;;;2.60;;
24301;SDS011;12421;49.732;20.078;2024-02-23T13:28:23;3.70;;;2.10;;
24301;SDS011;12421;49.732;20.078;2024-02-23T13:38:27;2.70;;;1.50;;
24301;SDS011;12421;49.732;20.078;2024-02-23T13:48:30;3.30;;;1.70;;
24301;SDS011;12421;49.732;20.078;2024-02-23T13:58:34;3.50;;;1.80;;
24301;SDS011;12421;49.732;20.078;2024-02-23T14:08:37;3.10;;;1.60;;
24301;SDS011;12421;49.732;20.078;2024-02-23T14:18:41;2.70;;;1.30;;
24301;SDS011;12421;49.732;20.078;2024-02-23T14:28:47;2.40;;;1.20;;
24301;SDS011;12421;49.732;20.078;2024-02-23T14:38:54;2.40;;;1.10;;
24301;SDS011;12421;49.732;20.078;2024-02-23T14:48:57;4.20;;;2.20;;
24301;SDS011;12421;49.732;20.078;2024-02-23T14:59:01;6.40;;;3.70;;
24301;SDS011;12421;49.732;20.078;2024-02-23T15:09:04;7.80;;;3.60;;
24301;SDS011;12421;49.732;20.078;2024-02-23T15:19:08;3.90;;;1.80;;
24301;SDS011;12421;49.732;20.078;2024-02-23T15:29:11;3.80;;;2.00;;
24301;SDS011;12421;49.732;20.078;2024-02-23T15:39:15;11.40;;;6.10;;
24301;SDS011;12421;49.732;20.078;2024-02-23T15:49:19;14.30;;;9.00;;
24301;SDS011;12421;49.732;20.078;2024-02-23T15:59:42;17.10;;;7.30;;
24301;SDS011;12421;49.732;20.078;2024-02-23T16:09:45;11.00;;;7.80;;
24301;SDS011;12421;49.732;20.078;2024-02-23T16:19:49;9.50;;;6.80;;
24301;SDS011;12421;49.732;20.078;2024-02-23T16:29:52;13.60;;;7.80;;
24301;SDS011;12421;49.732;20.078;2024-02-23T16:39:56;36.70;;;23.80;;
24301;SDS011;12421;49.732;20.078;2024-02-23T16:49:59;37.30;;;22.80;;
24301;SDS011;12421;49.732;20.078;2024-02-23T17:00:03;35.60;;;23.50;;
24301;SDS011;12421;49.732;20.078;2024-02-23T17:10:08;33.70;;;20.20;;
24301;SDS011;12421;49.732;20.078;2024-02-23T17:20:12;31.30;;;19.70;;
24301;SDS011;12421;49.732;20.078;2024-02-23T17:30:15;28.30;;;18.50;;
24301;SDS011;12421;49.732;20.078;2024-02-23T17:40:22;38.00;;;23.10;;
24301;SDS011;12421;49.732;20.078;2024-02-23T17:50:25;32.30;;;20.70;;
24301;SDS011;12421;49.732;20.078;2024-02-23T18:00:30;41.70;;;25.50;;
24301;SDS011;12421;49.732;20.078;2024-02-23T18:10:33;49.50;;;31.90;;
24301;SDS011;12421;49.732;20.078;2024-02-23T18:20:37;55.20;;;33.70;;
24301;SDS011;12421;49.732;20.078;2024-02-23T18:30:40;55.30;;;34.30;;
24301;SDS011;12421;49.732;20.078;2024-02-23T18:40:45;62.30;;;37.70;;
24301;SDS011;12421;49.732;20.078;2024-02-23T18:50:48;49.00;;;31.80;;
24301;SDS011;12421;49.732;20.078;2024-02-23T19:00:52;55.80;;;33.10;;
24301;SDS011;12421;49.732;20.078;2024-02-23T19:10:59;65.70;;;42.00;;
24301;SDS011;12421;49.732;20.078;2024-02-23T19:21:03;60.90;;;37.20;;
24301;SDS011;12421;49.732;20.078;2024-02-23T19:31:07;65.00;;;38.00;;
24301;SDS011;12421;49.732;20.078;2024-02-23T19:41:10;78.00;;;46.00;;
24301;SDS011;12421;49.732;20.078;2024-02-23T19:51:16;67.80;;;42.80;;
24301;SDS011;12421;49.732;20.078;2024-02-23T20:01:20;64.60;;;38.60;;
24301;SDS011;12421;49.732;20.078;2024-02-23T20:11:24;59.00;;;35.80;;
24301;SDS011;12421;49.732;20.078;2024-02-23T20:21:30;48.10;;;30.20;;
24301;SDS011;12421;49.732;20.078;2024-02-23T20:31:34;49.50;;;30.60;;
24301;SDS011;12421;49.732;20.078;2024-02-23T20:41:41;35.10;;;22.70;;
24301;SDS011;12421;49.732;20.078;2024-02-23T20:51:44;43.40;;;26.50;;
24301;SDS011;12421;49.732;20.078;2024-02-23T21:01:51;46.30;;;29.20;;
24301;SDS011;12421;49.732;20.078;2024-02-23T21:11:54;61.90;;;37.50;;
24301;SDS011;12421;49.732;20.078;2024-02-23T21:21:58;48.00;;;29.90;;
24301;SDS011;12421;49.732;20.078;2024-02-23T21:32:35;30.10;;;18.00;;
24301;SDS011;12421;49.732;20.078;2024-02-23T21:42:38;6.30;;;3.30;;
24301;SDS011;12421;49.732;20.078;2024-02-23T21:52:45;3.40;;;2.10;;
24301;SDS011;12421;49.732;20.078;2024-02-23T22:02:48;3.00;;;1.60;;
24301;SDS011;12421;49.732;20.078;2024-02-23T22:12:54;3.90;;;1.80;;
24301;SDS011;12421;49.732;20.078;2024-02-23T22:22:57;2.60;;;1.50;;
24301;SDS011;12421;49.732;20.078;2024-02-23T22:33:00;2.80;;;1.50;;
24301;SDS011;12421;49.732;20.078;2024-02-23T22:43:04;1.50;;;1.00;;
24301;SDS011;12421;49.732;20.078;2024-02-23T22:53:07;2.10;;;1.10;;
24301;SDS011;12421;49.732;20.078;2024-02-23T23:03:12;2.10;;;1.20;;
24301;SDS011;12421;49.732;20.078;2024-02-23T23:13:16;4.10;;;1.80;;
24301;SDS011;12421;49.732;20.078;2024-02-23T23:23:22;7.10;;;3.60;;
24301;SDS011;12421;49.732;20.078;2024-02-23T23:33:25;3.30;;;2.10;;
24301;SDS011;12421;49.732;20.078;2024-02-23T23:43:28;4.20;;;3.40;;
24301;SDS011;12421;49.732;20.078;2024-02-23T23:53:32;5.90;;;3.90;;
